createdAt,value
2024-03-21T00:00:17.361Z,95451.00
2024-03-21T00:01:17.353Z,95453.00
2024-03-21T00:02:17.374Z,95451.00
2024-03-21T00:03:17.463Z,95454.00
2024-03-21T00:04:17.435Z,95453.00
2024-03-21T00:05:17.490Z,95453.00
2024-03-21T00:06:17.529Z,95454.00
2024-03-21T00:07:17.587Z,95455.00
2024-03-21T00:08:19.583Z,95455.00
2024-03-21T00:09:17.603Z,95457.00
2024-03-21T00:10:17.615Z,95456.00
2024-03-21T00:11:17.622Z,95461.00
2024-03-21T00:12:17.573Z,95458.00
2024-03-21T00:13:17.622Z,95457.00
2024-03-21T00:14:17.645Z,95457.00
2024-03-21T00:15:17.583Z,95458.00
2024-03-21T00:16:17.582Z,95459.00
2024-03-21T00:17:17.679Z,95460.00
2024-03-21T00:18:17.574Z,95459.00
2024-03-21T00:19:17.616Z,95457.00
2024-03-21T00:20:17.627Z,95453.00
2024-03-21T00:21:17.594Z,95455.00
2024-03-21T00:22:17.607Z,95454.00
2024-03-21T00:23:17.631Z,95453.00
2024-03-21T00:24:17.613Z,95457.00
2024-03-21T00:25:17.619Z,95455.00
2024-03-21T00:26:17.623Z,95455.00
2024-03-21T00:27:17.596Z,95452.00
2024-03-21T00:28:17.588Z,95453.00
2024-03-21T00:29:17.644Z,95451.00
2024-03-21T00:30:17.594Z,95454.00
2024-03-21T00:31:17.615Z,95454.00
2024-03-21T00:32:17.615Z,95452.00
2024-03-21T00:33:17.599Z,95451.00
2024-03-21T00:34:17.597Z,95451.00
2024-03-21T00:35:17.625Z,95453.00
2024-03-21T00:36:17.630Z,95450.00
2024-03-21T00:37:17.635Z,95452.00
2024-03-21T00:38:17.727Z,95453.00
2024-03-21T00:39:17.626Z,95457.00
2024-03-21T00:40:17.627Z,95456.00
2024-03-21T00:41:17.630Z,95458.00
2024-03-21T00:42:17.625Z,95456.00
2024-03-21T00:43:17.585Z,95457.00
2024-03-21T00:44:17.631Z,95457.00
2024-03-21T00:45:17.584Z,95457.00
2024-03-21T00:46:17.590Z,95457.00
2024-03-21T00:47:17.665Z,95458.00
2024-03-21T00:48:17.680Z,95456.00
2024-03-21T00:49:17.783Z,95458.00
2024-03-21T00:50:17.940Z,95461.00
2024-03-21T00:51:17.835Z,95462.00
2024-03-21T00:52:17.895Z,95461.00
2024-03-21T00:53:17.944Z,95460.00
2024-03-21T00:54:18.016Z,95459.00
2024-03-21T00:55:18.001Z,95459.00
2024-03-21T00:56:18.076Z,95459.00
2024-03-21T00:57:18.125Z,95456.00
2024-03-21T00:58:18.158Z,95456.00
2024-03-21T00:59:18.238Z,95454.00
2024-03-21T01:00:18.269Z,95455.00
2024-03-21T01:01:18.300Z,95455.00
2024-03-21T01:02:18.309Z,95454.00
2024-03-21T01:03:18.354Z,95455.00
2024-03-21T01:04:18.416Z,95454.00
2024-03-21T01:05:18.447Z,95453.00
2024-03-21T01:06:18.496Z,95453.00
2024-03-21T01:07:18.535Z,95451.00
2024-03-21T01:08:18.557Z,95451.00
2024-03-21T01:09:18.615Z,95450.00
2024-03-21T01:10:18.656Z,95450.00
2024-03-21T01:11:18.770Z,95450.00
2024-03-21T01:12:18.740Z,95451.00
2024-03-21T01:13:18.810Z,95450.00
2024-03-21T01:14:18.858Z,95453.00
2024-03-21T01:15:18.865Z,95453.00
2024-03-21T01:16:18.901Z,95452.00
2024-03-21T01:17:18.950Z,95451.00
2024-03-21T01:18:19.002Z,95450.00
2024-03-21T01:19:19.090Z,95449.00
2024-03-21T01:20:19.123Z,95448.00
2024-03-21T01:21:19.212Z,95448.00
2024-03-21T01:22:19.213Z,95447.00
2024-03-21T01:23:19.268Z,95448.00
2024-03-21T01:24:19.330Z,95446.00
2024-03-21T01:25:19.398Z,95447.00
2024-03-21T01:26:19.428Z,95448.00
2024-03-21T01:27:21.668Z,95448.00
2024-03-21T01:28:19.477Z,95447.00
2024-03-21T01:29:19.467Z,95448.00
2024-03-21T01:30:19.479Z,95445.00
2024-03-21T01:31:19.477Z,95447.00
2024-03-21T01:32:19.434Z,95447.00
2024-03-21T01:33:19.447Z,95446.00
2024-03-21T01:34:19.502Z,95444.00
2024-03-21T01:35:19.466Z,95442.00
2024-03-21T01:36:19.475Z,95439.00
2024-03-21T01:37:19.456Z,95439.00
2024-03-21T01:38:19.570Z,95440.00
2024-03-21T01:39:19.457Z,95438.00
2024-03-21T01:40:19.487Z,95439.00
2024-03-21T01:41:19.483Z,95439.00
2024-03-21T01:42:19.493Z,95440.00
2024-03-21T01:43:19.463Z,95441.00
2024-03-21T01:44:19.504Z,95441.00
2024-03-21T01:45:19.479Z,95439.00
2024-03-21T01:46:20.292Z,95439.00
2024-03-21T01:47:19.473Z,95439.00
2024-03-21T01:48:19.498Z,95438.00
2024-03-21T01:49:19.495Z,95439.00
2024-03-21T01:50:19.494Z,95438.00
2024-03-21T01:51:19.511Z,95440.00
2024-03-21T01:52:19.522Z,95443.00
2024-03-21T01:53:19.497Z,95444.00
2024-03-21T01:54:19.470Z,95444.00
2024-03-21T01:55:19.513Z,95445.00
2024-03-21T01:56:19.493Z,95442.00
2024-03-21T01:57:19.495Z,95444.00
2024-03-21T01:58:19.479Z,95442.00
2024-03-21T01:59:19.501Z,95443.00
2024-03-21T02:00:19.507Z,95446.00
2024-03-21T02:01:19.485Z,95447.00
2024-03-21T02:02:19.493Z,95448.00
2024-03-21T02:03:19.534Z,95447.00
2024-03-21T02:04:19.525Z,95444.00
2024-03-21T02:05:19.534Z,95443.00
2024-03-21T02:06:19.476Z,95444.00
2024-03-21T02:07:19.517Z,95446.00
2024-03-21T02:08:19.537Z,95446.00
2024-03-21T02:09:20.296Z,95444.00
2024-03-21T02:10:19.511Z,95441.00
2024-03-21T02:11:19.556Z,95444.00
2024-03-21T02:12:19.590Z,95440.00
2024-03-21T02:13:19.684Z,95442.00
2024-03-21T02:14:19.718Z,95442.00
2024-03-21T02:15:19.778Z,95440.00
2024-03-21T02:16:19.815Z,95436.00
2024-03-21T02:17:19.889Z,95436.00
2024-03-21T02:18:19.930Z,95437.00
2024-03-21T02:19:20.010Z,95436.00
2024-03-21T02:20:20.038Z,95440.00
2024-03-21T02:21:20.145Z,95440.00
2024-03-21T02:22:20.171Z,95437.00
2024-03-21T02:23:20.243Z,95439.00
2024-03-21T02:24:20.282Z,95440.00
2024-03-21T02:25:20.366Z,95439.00
2024-03-21T02:26:20.392Z,95440.00
2024-03-21T02:27:20.513Z,95439.00
2024-03-21T02:28:20.509Z,95442.00
2024-03-21T02:29:20.585Z,95441.00
2024-03-21T02:30:20.598Z,95443.00
2024-03-21T02:31:20.659Z,95443.00
2024-03-21T02:32:20.701Z,95443.00
2024-03-21T02:33:20.753Z,95444.00
2024-03-21T02:34:20.811Z,95443.00
2024-03-21T02:35:20.869Z,95441.00
2024-03-21T02:36:20.948Z,95442.00
2024-03-21T02:37:21.000Z,95442.00
2024-03-21T02:38:21.051Z,95442.00
2024-03-21T02:39:21.094Z,95444.00
2024-03-21T02:40:21.141Z,95445.00
2024-03-21T02:41:21.174Z,95445.00
2024-03-21T02:42:21.221Z,95445.00
2024-03-21T02:43:21.236Z,95445.00
2024-03-21T02:44:21.316Z,95445.00
2024-03-21T02:45:21.337Z,95444.00
2024-03-21T02:46:23.509Z,95441.00
2024-03-21T02:47:21.431Z,95436.00
2024-03-21T02:48:21.400Z,95434.00
2024-03-21T02:49:21.858Z,95436.00
2024-03-21T02:50:21.389Z,95437.00
2024-03-21T02:51:21.384Z,95436.00
2024-03-21T02:52:21.391Z,95439.00
2024-03-21T02:53:21.398Z,95439.00
2024-03-21T02:54:21.402Z,95439.00
2024-03-21T02:55:21.411Z,95440.00
2024-03-21T02:56:21.431Z,95437.00
2024-03-21T02:57:21.456Z,95438.00
2024-03-21T02:58:21.401Z,95434.00
2024-03-21T02:59:21.471Z,95436.00
2024-03-21T03:00:21.395Z,95435.00
2024-03-21T03:01:21.401Z,95435.00
2024-03-21T03:02:21.413Z,95436.00
2024-03-21T03:03:21.419Z,95440.00
2024-03-21T03:04:21.436Z,95440.00
2024-03-21T03:05:21.439Z,95440.00
2024-03-21T03:06:21.437Z,95440.00
2024-03-21T03:07:21.503Z,95439.00
2024-03-21T03:08:21.453Z,95438.00
2024-03-21T03:09:21.458Z,95437.00
2024-03-21T03:10:21.432Z,95438.00
2024-03-21T03:11:21.418Z,95440.00
2024-03-21T03:12:21.422Z,95438.00
2024-03-21T03:13:21.434Z,95439.00
2024-03-21T03:14:21.435Z,95440.00
2024-03-21T03:15:21.450Z,95438.00
2024-03-21T03:16:21.427Z,95435.00
2024-03-21T03:17:21.490Z,95433.00
2024-03-21T03:18:21.435Z,95435.00
2024-03-21T03:19:21.480Z,95434.00
2024-03-21T03:20:21.427Z,95431.00
2024-03-21T03:21:21.448Z,95427.00
2024-03-21T03:22:21.464Z,95426.00
2024-03-21T03:23:21.483Z,95425.00
2024-03-21T03:24:21.473Z,95425.00
2024-03-21T03:25:21.498Z,95424.00
2024-03-21T03:26:21.520Z,95427.00
2024-03-21T03:27:21.632Z,95427.00
2024-03-21T03:28:21.637Z,95429.00
2024-03-21T03:29:21.693Z,95428.00
2024-03-21T03:30:21.756Z,95429.00
2024-03-21T03:31:21.809Z,95427.00
2024-03-21T03:32:21.850Z,95426.00
2024-03-21T03:33:21.887Z,95424.00
2024-03-21T03:34:21.953Z,95420.00
2024-03-21T03:35:21.994Z,95420.00
2024-03-21T03:36:22.117Z,95422.00
2024-03-21T03:37:22.160Z,95418.00
2024-03-21T03:38:22.225Z,95418.00
2024-03-21T03:39:22.250Z,95418.00
2024-03-21T03:40:22.392Z,95418.00
2024-03-21T03:41:22.359Z,95424.00
2024-03-21T03:42:22.459Z,95425.00
2024-03-21T03:43:22.460Z,95423.00
2024-03-21T03:44:22.569Z,95420.00
2024-03-21T03:45:22.591Z,95418.00
2024-03-21T03:46:22.641Z,95416.00
2024-03-21T03:47:22.697Z,95413.00
2024-03-21T03:48:22.760Z,95411.00
2024-03-21T03:49:22.812Z,95409.00
2024-03-21T03:50:22.838Z,95412.00
2024-03-21T03:51:22.925Z,95416.00
2024-03-21T03:52:22.949Z,95416.00
2024-03-21T03:53:23.042Z,95418.00
2024-03-21T03:54:23.113Z,95423.00
2024-03-21T03:55:23.164Z,95427.00
2024-03-21T03:56:23.216Z,95431.00
2024-03-21T03:57:23.276Z,95436.00
2024-03-21T03:58:23.337Z,95441.00
2024-03-21T03:59:23.389Z,95444.00
2024-03-21T04:00:23.412Z,95450.00
2024-03-21T04:01:23.502Z,95454.00
2024-03-21T04:02:23.564Z,95456.00
2024-03-21T04:03:23.617Z,95457.00
2024-03-21T04:04:23.692Z,95458.00
2024-03-21T04:05:23.709Z,95459.00
2024-03-21T04:06:23.826Z,95456.00
2024-03-21T04:07:23.864Z,95457.00
2024-03-21T04:08:23.917Z,95458.00
2024-03-21T04:09:23.969Z,95460.00
2024-03-21T04:10:24.029Z,95465.00
2024-03-21T04:11:24.080Z,95469.00
2024-03-21T04:12:24.154Z,95470.00
2024-03-21T04:13:24.200Z,95470.00
2024-03-21T04:14:24.266Z,95466.00
2024-03-21T04:15:24.313Z,95467.00
2024-03-21T04:16:24.371Z,95468.00
2024-03-21T04:17:24.433Z,95468.00
2024-03-21T04:18:24.491Z,95470.00
2024-03-21T04:19:24.533Z,95466.00
2024-03-21T04:20:24.568Z,95462.00
2024-03-21T04:21:24.632Z,95457.00
2024-03-21T04:22:24.677Z,95456.00
2024-03-21T04:23:24.756Z,95453.00
2024-03-21T04:24:24.841Z,95455.00
2024-03-21T04:25:24.903Z,95457.00
2024-03-21T04:26:24.969Z,95457.00
2024-03-21T04:27:25.009Z,95455.00
2024-03-21T04:28:25.068Z,95453.00
2024-03-21T04:29:25.130Z,95448.00
2024-03-21T04:30:25.178Z,95446.00
2024-03-21T04:31:25.852Z,95445.00
2024-03-21T04:32:25.306Z,95447.00
2024-03-21T04:33:25.358Z,95444.00
2024-03-21T04:34:32.661Z,95445.00
2024-03-21T04:35:32.618Z,95443.00
2024-03-21T04:36:32.626Z,95443.00
2024-03-21T04:37:32.611Z,95445.00
2024-03-21T04:38:45.403Z,95447.00
2024-03-21T04:39:33.631Z,95446.00
2024-03-21T04:40:32.627Z,95443.00
2024-03-21T04:41:32.647Z,95440.00
2024-03-21T04:42:32.637Z,95440.00
2024-03-21T04:43:32.613Z,95440.00
2024-03-21T04:44:32.647Z,95442.00
2024-03-21T04:45:32.641Z,95440.00
2024-03-21T04:46:32.640Z,95441.00
2024-03-21T04:47:32.632Z,95443.00
2024-03-21T04:48:32.627Z,95441.00
2024-03-21T04:49:32.665Z,95443.00
2024-03-21T04:50:32.704Z,95441.00
2024-03-21T04:51:32.762Z,95438.00
2024-03-21T04:52:32.816Z,95436.00
2024-03-21T04:53:32.892Z,95437.00
2024-03-21T04:54:32.930Z,95437.00
2024-03-21T04:55:33.027Z,95440.00
2024-03-21T04:56:33.048Z,95439.00
2024-03-21T04:57:33.159Z,95442.00
2024-03-21T04:58:33.158Z,95442.00
2024-03-21T04:59:33.232Z,95441.00
2024-03-21T05:00:33.288Z,95443.00
2024-03-21T05:01:33.355Z,95441.00
2024-03-21T05:02:33.451Z,95443.00
2024-03-21T05:03:33.473Z,95441.00
2024-03-21T05:04:33.532Z,95442.00
2024-03-21T05:05:33.583Z,95441.00
2024-03-21T05:06:33.667Z,95440.00
2024-03-21T05:07:33.738Z,95441.00
2024-03-21T05:08:33.762Z,95443.00
2024-03-21T05:09:33.849Z,95446.00
2024-03-21T05:10:33.911Z,95444.00
2024-03-21T05:11:34.023Z,95448.00
2024-03-21T05:12:34.084Z,95445.00
2024-03-21T05:13:34.135Z,95446.00
2024-03-21T05:14:34.200Z,95446.00
2024-03-21T05:15:34.256Z,95449.00
2024-03-21T05:16:34.359Z,95453.00
2024-03-21T05:17:34.445Z,95455.00
2024-03-21T05:18:34.475Z,95455.00
2024-03-21T05:19:34.562Z,95452.00
2024-03-21T05:20:34.599Z,95451.00
2024-03-21T05:21:34.701Z,95443.00
2024-03-21T05:22:34.737Z,95444.00
2024-03-21T05:23:34.794Z,95441.00
2024-03-21T05:24:34.857Z,95443.00
2024-03-21T05:25:34.901Z,95443.00
2024-03-21T05:26:35.000Z,95445.00
2024-03-21T05:27:35.022Z,95449.00
2024-03-21T05:28:35.113Z,95454.00
2024-03-21T05:29:35.178Z,95454.00
2024-03-21T05:30:35.218Z,95454.00
2024-03-21T05:31:35.311Z,95454.00
2024-03-21T05:32:35.340Z,95449.00
2024-03-21T05:33:35.440Z,95448.00
2024-03-21T05:34:35.489Z,95449.00
2024-03-21T05:35:35.528Z,95447.00
2024-03-21T05:36:35.604Z,95448.00
2024-03-21T05:37:35.662Z,95449.00
2024-03-21T05:38:35.727Z,95448.00
2024-03-21T05:39:35.794Z,95448.00
2024-03-21T05:40:35.832Z,95449.00
2024-03-21T05:41:35.917Z,95450.00
2024-03-21T05:42:35.947Z,95448.00
2024-03-21T05:43:36.030Z,95449.00
2024-03-21T05:44:36.144Z,95445.00
2024-03-21T05:45:36.156Z,95445.00
2024-03-21T05:46:36.251Z,95442.00
2024-03-21T05:47:36.273Z,95443.00
2024-03-21T05:48:36.318Z,95444.00
2024-03-21T05:49:36.382Z,95443.00
2024-03-21T05:50:36.440Z,95440.00
2024-03-21T05:51:36.514Z,95442.00
2024-03-21T05:52:36.548Z,95440.00
2024-03-21T05:53:36.667Z,95440.00
2024-03-21T05:54:36.702Z,95436.00
2024-03-21T05:55:36.752Z,95433.00
2024-03-21T05:56:36.829Z,95429.00
2024-03-21T05:57:36.871Z,95427.00
2024-03-21T05:58:36.909Z,95427.00
2024-03-21T05:59:36.974Z,95426.00
2024-03-21T06:00:36.975Z,95427.00
2024-03-21T06:01:37.050Z,95428.00
2024-03-21T06:02:37.189Z,95428.00
2024-03-21T06:03:37.120Z,95429.00
2024-03-21T06:04:37.148Z,95428.00
2024-03-21T06:05:37.172Z,95427.00
2024-03-21T06:06:37.201Z,95425.00
2024-03-21T06:07:37.223Z,95424.00
2024-03-21T06:08:37.272Z,95422.00
2024-03-21T06:09:37.287Z,95422.00
2024-03-21T06:10:37.320Z,95423.00
2024-03-21T06:11:37.335Z,95425.00
2024-03-21T06:12:37.376Z,95427.00
2024-03-21T06:13:37.356Z,95425.00
2024-03-21T06:14:37.396Z,95429.00
2024-03-21T06:15:39.880Z,95427.00
2024-03-21T06:16:37.553Z,95432.00
2024-03-21T06:17:37.583Z,95434.00
2024-03-21T06:18:37.597Z,95439.00
2024-03-21T06:19:37.605Z,95443.00
2024-03-21T06:20:37.651Z,95448.00
2024-03-21T06:21:39.289Z,95448.00
2024-03-21T06:22:37.628Z,95448.00
2024-03-21T06:23:37.631Z,95444.00
2024-03-21T06:24:37.648Z,95444.00
2024-03-21T06:25:37.657Z,95452.00
2024-03-21T06:26:37.661Z,95455.00
2024-03-21T06:27:37.655Z,95462.00
2024-03-21T06:28:37.665Z,95471.00
2024-03-21T06:29:37.640Z,95478.00
2024-03-21T06:30:37.646Z,95481.00
2024-03-21T06:31:37.642Z,95487.00
2024-03-21T06:32:37.661Z,95490.00
2024-03-21T06:33:37.663Z,95493.00
2024-03-21T06:34:37.670Z,95496.00
2024-03-21T06:35:37.735Z,95502.00
2024-03-21T06:36:37.682Z,95498.00
2024-03-21T06:37:37.644Z,95505.00
2024-03-21T06:38:37.668Z,95516.00
2024-03-21T06:39:37.670Z,95520.00
2024-03-21T06:40:37.653Z,95529.00
2024-03-21T06:41:37.655Z,95529.00
2024-03-21T06:42:37.660Z,95536.00
2024-03-21T06:43:37.672Z,95540.00
2024-03-21T06:44:37.692Z,95539.00
2024-03-21T06:45:37.672Z,95538.00
2024-03-21T06:46:37.691Z,95537.00
2024-03-21T06:47:37.705Z,95539.00
2024-03-21T06:48:37.658Z,95536.00
2024-03-21T06:49:37.692Z,95536.00
2024-03-21T06:50:38.270Z,95533.00
2024-03-21T06:51:37.676Z,95539.00
2024-03-21T06:52:37.677Z,95538.00
2024-03-21T06:53:37.693Z,95536.00
2024-03-21T06:54:37.708Z,95535.00
2024-03-21T06:55:37.697Z,95539.00
2024-03-21T06:56:37.655Z,95538.00
2024-03-21T06:57:37.682Z,95541.00
2024-03-21T06:58:37.683Z,95546.00
2024-03-21T06:59:37.689Z,95542.00
2024-03-21T07:00:37.677Z,95541.00
2024-03-21T07:01:37.699Z,95538.00
2024-03-21T07:02:37.848Z,95539.00
2024-03-21T07:03:37.690Z,95540.00
2024-03-21T07:04:37.698Z,95545.00
2024-03-21T07:05:37.688Z,95544.00
2024-03-21T07:06:37.696Z,95544.00
2024-03-21T07:07:37.691Z,95546.00
2024-03-21T07:08:37.669Z,95541.00
2024-03-21T07:09:37.703Z,95543.00
2024-03-21T07:10:37.723Z,95541.00
2024-03-21T07:11:37.670Z,95543.00
2024-03-21T07:12:37.680Z,95539.00
2024-03-21T07:13:37.698Z,95536.00
2024-03-21T07:14:37.708Z,95536.00
2024-03-21T07:15:37.699Z,95538.00
2024-03-21T07:16:39.119Z,95534.00
2024-03-21T07:17:37.678Z,95532.00
2024-03-21T07:18:37.698Z,95531.00
2024-03-21T07:19:37.706Z,95529.00
2024-03-21T07:20:37.717Z,95530.00
2024-03-21T07:21:37.718Z,95534.00
2024-03-21T07:22:37.695Z,95536.00
2024-03-21T07:23:37.714Z,95535.00
2024-03-21T07:24:37.743Z,95536.00
2024-03-21T07:25:37.708Z,95534.00
2024-03-21T07:26:37.708Z,95533.00
2024-03-21T07:27:37.721Z,95530.00
2024-03-21T07:28:37.729Z,95529.00
2024-03-21T07:29:37.736Z,95528.00
2024-03-21T07:30:37.752Z,95528.00
2024-03-21T07:31:37.714Z,95527.00
2024-03-21T07:32:37.716Z,95526.00
2024-03-21T07:33:37.756Z,95529.00
2024-03-21T07:34:37.736Z,95532.00
2024-03-21T07:35:37.708Z,95533.00
2024-03-21T07:36:37.754Z,95537.00
2024-03-21T07:37:37.758Z,95541.00
2024-03-21T07:38:37.730Z,95542.00
2024-03-21T07:39:37.779Z,95541.00
2024-03-21T07:40:37.754Z,95538.00
2024-03-21T07:41:37.725Z,95537.00
2024-03-21T07:42:37.721Z,95539.00
2024-03-21T07:43:37.743Z,95540.00
2024-03-21T07:44:37.780Z,95548.00
2024-03-21T07:45:37.761Z,95539.00
2024-03-21T07:46:37.742Z,95537.00
2024-03-21T07:47:37.747Z,95542.00
2024-03-21T07:48:37.774Z,95541.00
2024-03-21T07:49:37.731Z,95541.00
2024-03-21T07:50:37.732Z,95543.00
2024-03-21T07:51:37.758Z,95541.00
2024-03-21T07:52:37.760Z,95542.00
2024-03-21T07:53:37.726Z,95540.00
2024-03-21T07:54:37.864Z,95543.00
2024-03-21T07:55:37.771Z,95541.00
2024-03-21T07:56:37.765Z,95541.00
2024-03-21T07:57:37.798Z,95543.00
2024-03-21T07:58:37.743Z,95545.00
2024-03-21T07:59:37.781Z,95542.00
2024-03-21T08:00:37.790Z,95543.00
2024-03-21T08:01:37.753Z,95543.00
2024-03-21T08:02:37.767Z,95542.00
2024-03-21T08:03:37.763Z,95542.00
2024-03-21T08:04:37.765Z,95541.00
2024-03-21T08:05:37.765Z,95543.00
2024-03-21T08:06:37.769Z,95542.00
2024-03-21T08:07:37.806Z,95542.00
2024-03-21T08:08:37.766Z,95545.00
2024-03-21T08:09:37.795Z,95544.00
2024-03-21T08:10:37.832Z,95542.00
2024-03-21T08:11:37.798Z,95543.00
2024-03-21T08:12:37.818Z,95544.00
2024-03-21T08:13:37.790Z,95544.00
2024-03-21T08:14:37.806Z,95542.00
2024-03-21T08:15:37.870Z,95547.00
2024-03-21T08:16:37.872Z,95546.00
2024-03-21T08:17:39.051Z,95547.00
2024-03-21T08:18:37.819Z,95546.00
2024-03-21T08:19:37.784Z,95545.00
2024-03-21T08:20:37.834Z,95545.00
2024-03-21T08:21:37.778Z,95545.00
2024-03-21T08:22:37.777Z,95546.00
2024-03-21T08:23:37.812Z,95547.00
2024-03-21T08:24:37.773Z,95547.00
2024-03-21T08:25:37.822Z,95548.00
2024-03-21T08:26:37.854Z,95548.00
2024-03-21T08:27:37.926Z,95550.00
2024-03-21T08:28:37.936Z,95550.00
2024-03-21T08:29:37.943Z,95549.00
2024-03-21T08:30:38.001Z,95550.00
2024-03-21T08:31:38.018Z,95553.00
2024-03-21T08:32:38.083Z,95555.00
2024-03-21T08:33:38.046Z,95558.00
2024-03-21T08:34:38.106Z,95559.00
2024-03-21T08:35:38.061Z,95562.00
2024-03-21T08:36:38.055Z,95559.00
2024-03-21T08:37:38.053Z,95559.00
2024-03-21T08:38:38.071Z,95558.00
2024-03-21T08:39:38.151Z,95560.00
2024-03-21T08:40:38.101Z,95560.00
2024-03-21T08:41:38.121Z,95560.00
2024-03-21T08:42:38.177Z,95560.00
2024-03-21T08:43:38.230Z,95561.00
2024-03-21T08:44:38.124Z,95563.00
2024-03-21T08:45:38.148Z,95564.00
2024-03-21T08:46:38.182Z,95565.00
2024-03-21T08:47:38.182Z,95566.00
2024-03-21T08:48:38.289Z,95564.00
2024-03-21T08:49:38.244Z,95568.00
2024-03-21T08:50:38.278Z,95564.00
2024-03-21T08:51:38.379Z,95561.00
2024-03-21T08:52:38.339Z,95562.00
2024-03-21T08:53:38.375Z,95564.00
2024-03-21T08:54:38.405Z,95563.00
2024-03-21T08:55:38.457Z,95564.00
2024-03-21T08:56:38.480Z,95565.00
2024-03-21T08:57:38.486Z,95563.00
2024-03-21T08:58:38.525Z,95563.00
2024-03-21T08:59:38.505Z,95565.00
2024-03-21T09:00:38.514Z,95565.00
2024-03-21T09:01:38.528Z,95565.00
2024-03-21T09:02:38.548Z,95568.00
2024-03-21T09:03:38.533Z,95567.00
2024-03-21T09:04:38.570Z,95568.00
2024-03-21T09:05:38.553Z,95571.00
2024-03-21T09:06:38.571Z,95574.00
2024-03-21T09:07:38.597Z,95575.00
2024-03-21T09:08:38.626Z,95573.00
2024-03-21T09:09:38.601Z,95574.00
2024-03-21T09:10:38.594Z,95576.00
2024-03-21T09:11:38.611Z,95576.00
2024-03-21T09:12:38.598Z,95575.00
2024-03-21T09:13:38.666Z,95575.00
2024-03-21T09:14:38.658Z,95577.00
2024-03-21T09:15:38.695Z,95580.00
2024-03-21T09:16:38.726Z,95581.00
2024-03-21T09:17:38.812Z,95583.00
2024-03-21T09:18:39.333Z,95581.00
2024-03-21T09:19:38.856Z,95583.00
2024-03-21T09:20:38.905Z,95583.00
2024-03-21T09:21:38.940Z,95582.00
2024-03-21T09:22:39.003Z,95585.00
2024-03-21T09:23:39.047Z,95585.00
2024-03-21T09:24:39.120Z,95589.00
2024-03-21T09:25:39.299Z,95588.00
2024-03-21T09:26:39.192Z,95589.00
2024-03-21T09:27:39.309Z,95591.00
2024-03-21T09:28:39.357Z,95590.00
2024-03-21T09:29:39.851Z,95591.00
2024-03-21T09:30:39.488Z,95590.00
2024-03-21T09:31:39.543Z,95590.00
2024-03-21T09:32:39.631Z,95592.00
2024-03-21T09:33:39.794Z,95592.00
2024-03-21T09:34:39.746Z,95593.00
2024-03-21T09:35:39.759Z,95596.00
2024-03-21T09:36:39.833Z,95601.00
2024-03-21T09:37:39.821Z,95601.00
2024-03-21T09:38:39.880Z,95601.00
2024-03-21T09:39:39.841Z,95599.00
2024-03-21T09:40:39.880Z,95599.00
2024-03-21T09:41:39.992Z,95602.00
2024-03-21T09:42:40.035Z,95601.00
2024-03-21T09:43:40.184Z,95601.00
2024-03-21T09:44:40.147Z,95603.00
2024-03-21T09:45:40.363Z,95604.00
2024-03-21T09:46:40.331Z,95604.00
2024-03-21T09:47:40.406Z,95603.00
2024-03-21T09:48:41.078Z,95606.00
2024-03-21T09:49:40.522Z,95605.00
2024-03-21T09:50:40.546Z,95603.00
2024-03-21T09:51:41.355Z,95607.00
2024-03-21T09:52:40.684Z,95609.00
2024-03-21T09:53:40.737Z,95609.00
2024-03-21T09:54:40.811Z,95610.00
2024-03-21T09:55:40.854Z,95609.00
2024-03-21T09:56:40.942Z,95609.00
2024-03-21T09:57:40.966Z,95611.00
2024-03-21T09:58:41.036Z,95612.00
2024-03-21T09:59:41.101Z,95616.00
2024-03-21T10:00:41.160Z,95619.00
2024-03-21T10:01:41.234Z,95617.00
2024-03-21T10:02:41.327Z,95618.00
2024-03-21T10:03:41.329Z,95619.00
2024-03-21T10:04:41.389Z,95620.00
2024-03-21T10:05:41.487Z,95619.00
2024-03-21T10:06:41.512Z,95622.00
2024-03-21T10:07:41.593Z,95623.00
2024-03-21T10:08:41.651Z,95622.00
2024-03-21T10:09:41.723Z,95623.00
2024-03-21T10:10:41.800Z,95622.00
2024-03-21T10:11:41.852Z,95628.00
2024-03-21T10:12:41.905Z,95629.00
2024-03-21T10:13:41.947Z,95632.00
2024-03-21T10:14:42.060Z,95632.00
2024-03-21T10:15:42.080Z,95632.00
2024-03-21T10:16:42.152Z,95630.00
2024-03-21T10:17:42.212Z,95626.00
2024-03-21T10:18:42.586Z,95625.00
2024-03-21T10:19:42.345Z,95623.00
2024-03-21T10:20:42.447Z,95623.00
2024-03-21T10:21:42.498Z,95624.00
2024-03-21T10:22:42.570Z,95623.00
2024-03-21T10:23:42.623Z,95624.00
2024-03-21T10:24:42.710Z,95621.00
2024-03-21T10:25:42.753Z,95622.00
2024-03-21T10:26:42.797Z,95625.00
2024-03-21T10:27:42.868Z,95620.00
2024-03-21T10:28:42.891Z,95623.00
2024-03-21T10:29:42.898Z,95624.00
2024-03-21T10:30:42.915Z,95621.00
2024-03-21T10:31:42.983Z,95618.00
2024-03-21T10:32:43.000Z,95618.00
2024-03-21T10:33:43.044Z,95620.00
2024-03-21T10:34:43.148Z,95618.00
2024-03-21T10:35:43.175Z,95620.00
2024-03-21T10:36:43.259Z,95621.00
2024-03-21T10:37:43.293Z,95618.00
2024-03-21T10:38:43.381Z,95617.00
2024-03-21T10:39:43.479Z,95614.00
2024-03-21T10:40:43.534Z,95613.00
2024-03-21T10:41:43.544Z,95612.00
2024-03-21T10:42:43.796Z,95613.00
2024-03-21T10:43:43.591Z,95612.00
2024-03-21T10:44:43.710Z,95615.00
2024-03-21T10:45:43.713Z,95611.00
2024-03-21T10:46:43.763Z,95611.00
2024-03-21T10:47:43.860Z,95609.00
2024-03-21T10:48:43.876Z,95611.00
2024-03-21T10:49:43.981Z,95611.00
2024-03-21T10:50:44.038Z,95612.00
2024-03-21T10:51:44.095Z,95614.00
2024-03-21T10:52:44.146Z,95610.00
2024-03-21T10:53:44.219Z,95608.00
2024-03-21T10:54:44.286Z,95606.00
2024-03-21T10:55:44.371Z,95606.00
2024-03-21T10:56:44.438Z,95602.00
2024-03-21T10:57:44.506Z,95604.00
2024-03-21T10:58:45.682Z,95602.00
2024-03-21T10:59:44.602Z,95602.00
2024-03-21T11:00:44.671Z,95603.00
2024-03-21T11:01:44.837Z,95603.00
2024-03-21T11:02:44.937Z,95604.00
2024-03-21T11:03:44.856Z,95606.00
2024-03-21T11:04:45.012Z,95604.00
2024-03-21T11:05:44.980Z,95606.00
2024-03-21T11:06:45.063Z,95601.00
2024-03-21T11:07:45.115Z,95602.00
2024-03-21T11:08:45.161Z,95600.00
2024-03-21T11:09:45.376Z,95600.00
2024-03-21T11:10:45.337Z,95597.00
2024-03-21T11:11:45.441Z,95594.00
2024-03-21T11:12:45.460Z,95591.00
2024-03-21T11:13:45.631Z,95590.00
2024-03-21T11:14:49.454Z,95587.00
2024-03-21T11:15:45.550Z,95587.00
2024-03-21T11:16:45.538Z,95586.00
2024-03-21T11:17:45.550Z,95588.00
2024-03-21T11:18:45.585Z,95589.00
2024-03-21T11:19:45.692Z,95589.00
2024-03-21T11:20:45.564Z,95587.00
2024-03-21T11:21:45.576Z,95584.00
2024-03-21T11:22:45.550Z,95584.00
2024-03-21T11:23:45.598Z,95586.00
2024-03-21T11:24:45.584Z,95585.00
2024-03-21T11:25:45.632Z,95583.00
2024-03-21T11:26:45.568Z,95580.00
2024-03-21T11:27:45.582Z,95579.00
2024-03-21T11:28:45.574Z,95579.00
2024-03-21T11:29:45.639Z,95574.00
2024-03-21T11:30:45.547Z,95576.00
2024-03-21T11:31:45.562Z,95579.00
2024-03-21T11:32:45.564Z,95577.00
2024-03-21T11:33:45.584Z,95578.00
2024-03-21T11:34:45.619Z,95573.00
2024-03-21T11:35:45.570Z,95571.00
2024-03-21T11:36:47.431Z,95572.00
2024-03-21T11:37:45.568Z,95573.00
2024-03-21T11:38:45.584Z,95569.00
2024-03-21T11:39:45.583Z,95569.00
2024-03-21T11:40:45.636Z,95569.00
2024-03-21T11:41:45.562Z,95566.00
2024-03-21T11:42:45.587Z,95570.00
2024-03-21T11:43:45.573Z,95565.00
2024-03-21T11:44:45.635Z,95565.00